sensor_id;sensor_type;location;lat;lon;timestamp;pressure;altitude;pressure_sealevel;temperature;humidity
16793;BME280;8513;42.662;23.350;2023-01-29T00:01:52;94989.59;;;1.70;64.65
16793;BME280;8513;42.662;23.350;2023-01-29T00:04:17;94986.88;;;1.59;64.29
16793;BME280;8513;42.662;23.350;2023-01-29T00:06:43;94992.91;;;1.72;64.42
16793;BME280;8513;42.662;23.350;2023-01-29T00:09:09;94993.13;;;1.69;64.06
16793;BME280;8513;42.662;23.350;2023-01-29T00:11:35;95002.22;;;1.62;64.00
16793;BME280;8513;42.662;23.350;2023-01-29T00:14:01;94999.28;;;1.54;64.96
16793;BME280;8513;42.662;23.350;2023-01-29T00:16:26;94999.81;;;1.59;64.82
16793;BME280;8513;42.662;23.350;2023-01-29T00:19:17;95009.25;;;1.60;64.61
16793;BME280;8513;42.662;23.350;2023-01-29T00:21:43;95012.03;;;1.57;64.69
16793;BME280;8513;42.662;23.350;2023-01-29T00:24:09;95007.78;;;1.56;64.95
16793;BME280;8513;42.662;23.350;2023-01-29T00:26:35;95014.63;;;1.57;64.94
16793;BME280;8513;42.662;23.350;2023-01-29T00:29:03;95018.59;;;1.63;64.30
16793;BME280;8513;42.662;23.350;2023-01-29T00:31:29;95015.03;;;1.78;64.29
16793;BME280;8513;42.662;23.350;2023-01-29T00:33:55;95014.63;;;1.57;64.71
16793;BME280;8513;42.662;23.350;2023-01-29T00:36:21;95019.81;;;1.57;64.97
16793;BME280;8513;42.662;23.350;2023-01-29T00:38:53;95015.97;;;1.77;64.52
16793;BME280;8513;42.662;23.350;2023-01-29T00:41:24;95017.47;;;1.67;64.17
16793;BME280;8513;42.662;23.350;2023-01-29T00:44:09;95008.88;;;1.66;64.78
16793;BME280;8513;42.662;23.350;2023-01-29T00:46:53;95008.06;;;1.79;64.64
16793;BME280;8513;42.662;23.350;2023-01-29T00:49:19;95014.75;;;1.83;64.08
16793;BME280;8513;42.662;23.350;2023-01-29T00:51:44;95010.94;;;1.61;64.10
16793;BME280;8513;42.662;23.350;2023-01-29T00:54:29;95017.13;;;1.59;64.72
16793;BME280;8513;42.662;23.350;2023-01-29T00:56:55;95018.16;;;1.56;64.72
16793;BME280;8513;42.662;23.350;2023-01-29T00:59:20;95007.50;;;1.61;65.01
16793;BME280;8513;42.662;23.350;2023-01-29T01:01:46;95016.66;;;1.39;65.80
16793;BME280;8513;42.662;23.350;2023-01-29T01:04:30;95012.44;;;1.51;65.93
16793;BME280;8513;42.662;23.350;2023-01-29T01:06:55;95010.44;;;1.42;66.47
16793;BME280;8513;42.662;23.350;2023-01-29T01:09:21;95013.81;;;1.57;65.90
16793;BME280;8513;42.662;23.350;2023-01-29T01:12:05;95008.22;;;1.63;65.39
16793;BME280;8513;42.662;23.350;2023-01-29T01:14:30;95009.25;;;1.60;66.17
16793;BME280;8513;42.662;23.350;2023-01-29T01:16:59;95007.59;;;1.59;66.36
16793;BME280;8513;42.662;23.350;2023-01-29T01:19:24;95008.63;;;1.57;66.54
16793;BME280;8513;42.662;23.350;2023-01-29T01:21:50;95003.34;;;1.58;66.90
16793;BME280;8513;42.662;23.350;2023-01-29T01:24:15;95007.59;;;1.59;66.80
16793;BME280;8513;42.662;23.350;2023-01-29T01:26:41;95000.34;;;1.64;66.70
16793;BME280;8513;42.662;23.350;2023-01-29T01:29:06;95006.50;;;1.63;66.34
16793;BME280;8513;42.662;23.350;2023-01-29T01:31:32;95001.25;;;1.50;67.18
16793;BME280;8513;42.662;23.350;2023-01-29T01:33:57;95004.59;;;1.38;67.52
16793;BME280;8513;42.662;23.350;2023-01-29T01:36:23;95006.09;;;1.42;67.23
16793;BME280;8513;42.662;23.350;2023-01-29T01:38:48;95010.81;;;1.36;66.98
16793;BME280;8513;42.662;23.350;2023-01-29T01:41:17;95013.44;;;1.21;67.81
16793;BME280;8513;42.662;23.350;2023-01-29T01:43:56;95007.19;;;1.38;67.27
16793;BME280;8513;42.662;23.350;2023-01-29T01:46:23;95007.25;;;1.51;66.90
16793;BME280;8513;42.662;23.350;2023-01-29T01:48:56;95013.84;;;1.42;67.06
16793;BME280;8513;42.662;23.350;2023-01-29T01:51:24;95013.63;;;1.18;67.83
16793;BME280;8513;42.662;23.350;2023-01-29T01:53:56;95007.22;;;1.24;68.17
16793;BME280;8513;42.662;23.350;2023-01-29T01:56:29;95015.56;;;1.29;67.91
16793;BME280;8513;42.662;23.350;2023-01-29T01:59:05;95022.41;;;1.16;68.55
16793;BME280;8513;42.662;23.350;2023-01-29T02:01:32;95016.97;;;1.06;69.43
16793;BME280;8513;42.662;23.350;2023-01-29T02:04:01;95025.09;;;1.28;68.51
16793;BME280;8513;42.662;23.350;2023-01-29T02:06:46;95031.91;;;1.29;68.20
16793;BME280;8513;42.662;23.350;2023-01-29T02:09:35;95031.19;;;1.27;67.97
16793;BME280;8513;42.662;23.350;2023-01-29T02:12:09;95019.75;;;1.03;68.33
16793;BME280;8513;42.662;23.350;2023-01-29T02:14:37;95019.63;;;1.19;68.40
16793;BME280;8513;42.662;23.350;2023-01-29T02:17:12;95020.19;;;1.24;68.16
16793;BME280;8513;42.662;23.350;2023-01-29T02:28:13;95038.72;;;0.89;70.31
16793;BME280;8513;42.662;23.350;2023-01-29T02:30:44;95046.84;;;0.97;69.90
16793;BME280;8513;42.662;23.350;2023-01-29T02:35:54;95042.78;;;1.07;69.87
16793;BME280;8513;42.662;23.350;2023-01-29T02:41:26;95050.34;;;0.96;70.29
16793;BME280;8513;42.662;23.350;2023-01-29T02:44:09;95055.16;;;0.88;70.94
16793;BME280;8513;42.662;23.350;2023-01-29T02:46:54;95056.84;;;0.89;70.78
16793;BME280;8513;42.662;23.350;2023-01-29T02:49:34;95059.69;;;0.99;70.75
16793;BME280;8513;42.662;23.350;2023-01-29T02:52:09;95056.34;;;1.11;70.27
16793;BME280;8513;42.662;23.350;2023-01-29T02:54:44;95060.25;;;1.18;70.05
16793;BME280;8513;42.662;23.350;2023-01-29T02:57:20;95056.84;;;1.18;69.49
16793;BME280;8513;42.662;23.350;2023-01-29T02:59:56;95051.44;;;1.06;70.08
16793;BME280;8513;42.662;23.350;2023-01-29T03:02:45;95050.19;;;0.99;70.83
16793;BME280;8513;42.662;23.350;2023-01-29T03:05:17;95052.22;;;0.94;71.09
16793;BME280;8513;42.662;23.350;2023-01-29T03:07:53;95055.25;;;0.86;71.60
16793;BME280;8513;42.662;23.350;2023-01-29T03:10:25;95049.34;;;0.84;71.92
16793;BME280;8513;42.662;23.350;2023-01-29T03:15:42;95048.50;;;1.13;70.61
16793;BME280;8513;42.662;23.350;2023-01-29T03:18:15;95045.25;;;1.09;70.13
16793;BME280;8513;42.662;23.350;2023-01-29T03:20:45;95056.81;;;1.03;70.61
16793;BME280;8513;42.662;23.350;2023-01-29T03:23:33;95063.00;;;1.01;70.71
16793;BME280;8513;42.662;23.350;2023-01-29T03:26:20;95066.34;;;1.03;70.31
16793;BME280;8513;42.662;23.350;2023-01-29T03:29:06;95065.16;;;1.08;69.71
16793;BME280;8513;42.662;23.350;2023-01-29T03:31:52;95059.03;;;0.95;70.26
16793;BME280;8513;42.662;23.350;2023-01-29T03:34:37;95063.22;;;0.98;69.99
16793;BME280;8513;42.662;23.350;2023-01-29T03:37:28;95070.41;;;0.78;70.15
16793;BME280;8513;42.662;23.350;2023-01-29T03:39:57;95064.50;;;0.91;69.83
16793;BME280;8513;42.662;23.350;2023-01-29T03:42:26;95064.13;;;0.82;70.14
16793;BME280;8513;42.662;23.350;2023-01-29T03:45:12;95063.84;;;0.87;69.76
16793;BME280;8513;42.662;23.350;2023-01-29T03:47:50;95064.94;;;1.12;69.48
16793;BME280;8513;42.662;23.350;2023-01-29T03:53:40;95056.72;;;0.62;70.42
16793;BME280;8513;42.662;23.350;2023-01-29T03:56:19;95054.88;;;0.78;71.10
16793;BME280;8513;42.662;23.350;2023-01-29T04:01:34;95061.75;;;0.94;71.13
16793;BME280;8513;42.662;23.350;2023-01-29T04:04:10;95061.19;;;0.88;71.31
16793;BME280;8513;42.662;23.350;2023-01-29T04:06:40;95063.13;;;0.99;71.08
16793;BME280;8513;42.662;23.350;2023-01-29T04:09:17;95061.63;;;1.09;70.30
16793;BME280;8513;42.662;23.350;2023-01-29T04:11:54;95058.94;;;1.11;70.26
16793;BME280;8513;42.662;23.350;2023-01-29T04:14:22;95072.44;;;0.59;71.99
16793;BME280;8513;42.662;23.350;2023-01-29T04:16:51;95063.22;;;0.83;71.69
16793;BME280;8513;42.662;23.350;2023-01-29T04:19:44;95069.47;;;0.79;71.73
16793;BME280;8513;42.662;23.350;2023-01-29T04:22:23;95074.28;;;0.85;71.36
16793;BME280;8513;42.662;23.350;2023-01-29T04:24:50;95073.56;;;0.98;71.04
16793;BME280;8513;42.662;23.350;2023-01-29T04:33:34;95073.75;;;0.95;70.97
16793;BME280;8513;42.662;23.350;2023-01-29T04:44:39;95080.03;;;0.76;71.19
16793;BME280;8513;42.662;23.350;2023-01-29T04:55:38;95082.06;;;0.85;70.71
16793;BME280;8513;42.662;23.350;2023-01-29T04:58:40;95084.56;;;0.87;70.74
16793;BME280;8513;42.662;23.350;2023-01-29T05:01:10;95086.03;;;0.77;70.81
16793;BME280;8513;42.662;23.350;2023-01-29T05:03:39;95092.13;;;0.90;70.52
16793;BME280;8513;42.662;23.350;2023-01-29T05:06:07;95090.69;;;0.86;70.58
16793;BME280;8513;42.662;23.350;2023-01-29T05:08:36;95086.31;;;0.86;70.23
16793;BME280;8513;42.662;23.350;2023-01-29T05:11:03;95087.59;;;0.79;70.69
16793;BME280;8513;42.662;23.350;2023-01-29T05:13:30;95087.34;;;0.98;70.33
16793;BME280;8513;42.662;23.350;2023-01-29T05:16:03;95100.78;;;0.60;71.09
16793;BME280;8513;42.662;23.350;2023-01-29T05:18:29;95100.72;;;0.62;71.44
16793;BME280;8513;42.662;23.350;2023-01-29T05:20:56;95096.38;;;0.62;70.99
16793;BME280;8513;42.662;23.350;2023-01-29T05:23:24;95098.97;;;0.62;71.32
16793;BME280;8513;42.662;23.350;2023-01-29T05:25:50;95096.94;;;0.68;70.93
16793;BME280;8513;42.662;23.350;2023-01-29T05:28:17;95101.28;;;0.67;71.09
16793;BME280;8513;42.662;23.350;2023-01-29T05:30:47;95106.66;;;0.78;70.98
16793;BME280;8513;42.662;23.350;2023-01-29T05:33:18;95108.13;;;0.68;70.93
16793;BME280;8513;42.662;23.350;2023-01-29T05:35:45;95108.47;;;0.62;70.86
16793;BME280;8513;42.662;23.350;2023-01-29T05:38:11;95115.81;;;0.70;70.85
16793;BME280;8513;42.662;23.350;2023-01-29T05:40:36;95109.63;;;0.42;71.39
16793;BME280;8513;42.662;23.350;2023-01-29T05:43:02;95111.78;;;0.64;71.35
16793;BME280;8513;42.662;23.350;2023-01-29T05:45:28;95108.75;;;0.72;70.92
16793;BME280;8513;42.662;23.350;2023-01-29T05:47:58;95116.63;;;0.70;70.16
16793;BME280;8513;42.662;23.350;2023-01-29T05:50:25;95114.72;;;0.43;71.44
16793;BME280;8513;42.662;23.350;2023-01-29T05:52:58;95107.38;;;0.66;71.36
16793;BME280;8513;42.662;23.350;2023-01-29T05:55:25;95117.41;;;0.26;72.65
16793;BME280;8513;42.662;23.350;2023-01-29T05:57:51;95123.28;;;0.30;72.65
16793;BME280;8513;42.662;23.350;2023-01-29T06:00:16;95121.09;;;0.52;72.12
16793;BME280;8513;42.662;23.350;2023-01-29T06:02:42;95123.16;;;0.61;72.66
16793;BME280;8513;42.662;23.350;2023-01-29T06:05:08;95121.63;;;0.73;71.49
16793;BME280;8513;42.662;23.350;2023-01-29T06:07:33;95131.09;;;0.58;71.94
16793;BME280;8513;42.662;23.350;2023-01-29T06:10:00;95131.72;;;0.48;72.77
16793;BME280;8513;42.662;23.350;2023-01-29T06:12:26;95132.66;;;0.61;72.26
16793;BME280;8513;42.662;23.350;2023-01-29T06:14:51;95134.34;;;0.62;72.44
16793;BME280;8513;42.662;23.350;2023-01-29T06:17:17;95143.34;;;0.71;72.02
16793;BME280;8513;42.662;23.350;2023-01-29T06:19:42;95149.78;;;0.94;71.71
16793;BME280;8513;42.662;23.350;2023-01-29T06:22:08;95138.59;;;1.07;71.41
16793;BME280;8513;42.662;23.350;2023-01-29T06:24:33;95156.03;;;1.04;71.13
16793;BME280;8513;42.662;23.350;2023-01-29T06:26:58;95155.50;;;1.13;70.79
16793;BME280;8513;42.662;23.350;2023-01-29T06:29:24;95155.88;;;1.07;70.50
16793;BME280;8513;42.662;23.350;2023-01-29T06:31:49;95167.16;;;0.92;71.21
16793;BME280;8513;42.662;23.350;2023-01-29T06:34:15;95157.97;;;0.86;71.25
16793;BME280;8513;42.662;23.350;2023-01-29T06:36:41;95165.84;;;0.99;71.34
16793;BME280;8513;42.662;23.350;2023-01-29T06:39:07;95162.41;;;0.84;71.35
16793;BME280;8513;42.662;23.350;2023-01-29T06:41:33;95165.56;;;0.89;71.83
16793;BME280;8513;42.662;23.350;2023-01-29T06:43:58;95168.34;;;0.86;71.60
16793;BME280;8513;42.662;23.350;2023-01-29T06:46:24;95165.19;;;0.81;71.75
16793;BME280;8513;42.662;23.350;2023-01-29T06:48:49;95174.47;;;0.69;72.49
16793;BME280;8513;42.662;23.350;2023-01-29T06:51:15;95174.78;;;0.49;73.41
16793;BME280;8513;42.662;23.350;2023-01-29T06:53:40;95179.66;;;0.99;72.22
16793;BME280;8513;42.662;23.350;2023-01-29T06:56:06;95186.53;;;1.29;70.67
16793;BME280;8513;42.662;23.350;2023-01-29T06:58:32;95190.31;;;1.23;70.91
16793;BME280;8513;42.662;23.350;2023-01-29T07:01:08;95190.47;;;1.06;70.96
16793;BME280;8513;42.662;23.350;2023-01-29T07:03:34;95177.13;;;0.98;72.00
16793;BME280;8513;42.662;23.350;2023-01-29T07:06:00;95179.88;;;0.80;72.17
16793;BME280;8513;42.662;23.350;2023-01-29T07:08:26;95190.38;;;1.07;71.64
16793;BME280;8513;42.662;23.350;2023-01-29T07:10:53;95199.00;;;1.22;71.19
16793;BME280;8513;42.662;23.350;2023-01-29T07:13:22;95192.97;;;1.36;69.84
16793;BME280;8513;42.662;23.350;2023-01-29T07:15:47;95198.09;;;1.38;70.57
16793;BME280;8513;42.662;23.350;2023-01-29T07:18:13;95205.28;;;1.32;70.40
16793;BME280;8513;42.662;23.350;2023-01-29T07:20:39;95202.19;;;0.97;70.81
16793;BME280;8513;42.662;23.350;2023-01-29T07:23:06;95202.50;;;1.21;71.33
16793;BME280;8513;42.662;23.350;2023-01-29T07:25:33;95203.16;;;1.10;71.01
16793;BME280;8513;42.662;23.350;2023-01-29T07:28:00;95208.19;;;0.98;72.57
16793;BME280;8513;42.662;23.350;2023-01-29T07:30:26;95200.75;;;1.22;71.39
16793;BME280;8513;42.662;23.350;2023-01-29T07:32:51;95201.44;;;1.40;70.25
16793;BME280;8513;42.662;23.350;2023-01-29T07:35:17;95204.69;;;0.99;71.14
16793;BME280;8513;42.662;23.350;2023-01-29T07:37:42;95214.19;;;1.43;70.83
16793;BME280;8513;42.662;23.350;2023-01-29T07:40:08;95214.34;;;1.11;70.76
16793;BME280;8513;42.662;23.350;2023-01-29T07:42:37;95210.28;;;1.36;70.42
16793;BME280;8513;42.662;23.350;2023-01-29T07:45:04;95213.06;;;1.47;69.81
16793;BME280;8513;42.662;23.350;2023-01-29T07:47:30;95215.59;;;1.34;70.50
16793;BME280;8513;42.662;23.350;2023-01-29T07:49:55;95222.34;;;1.51;69.70
16793;BME280;8513;42.662;23.350;2023-01-29T07:52:20;95220.56;;;1.37;69.45
16793;BME280;8513;42.662;23.350;2023-01-29T07:54:46;95221.03;;;1.44;69.92
16793;BME280;8513;42.662;23.350;2023-01-29T07:57:11;95220.03;;;1.61;69.13
16793;BME280;8513;42.662;23.350;2023-01-29T07:59:37;95227.25;;;1.56;69.01
16793;BME280;8513;42.662;23.350;2023-01-29T08:02:02;95222.31;;;1.22;70.58
16793;BME280;8513;42.662;23.350;2023-01-29T08:04:27;95224.84;;;1.52;70.16
16793;BME280;8513;42.662;23.350;2023-01-29T08:06:53;95232.84;;;1.19;70.58
16793;BME280;8513;42.662;23.350;2023-01-29T08:09:18;95229.31;;;1.20;71.43
16793;BME280;8513;42.662;23.350;2023-01-29T08:11:44;95236.31;;;1.34;71.06
16793;BME280;8513;42.662;23.350;2023-01-29T08:14:09;95229.75;;;1.57;70.23
16793;BME280;8513;42.662;23.350;2023-01-29T08:16:34;95232.72;;;1.51;70.36
16793;BME280;8513;42.662;23.350;2023-01-29T08:19:01;95235.47;;;1.48;70.59
16793;BME280;8513;42.662;23.350;2023-01-29T08:21:26;95235.25;;;1.22;71.26
16793;BME280;8513;42.662;23.350;2023-01-29T08:23:52;95233.16;;;1.43;70.14
16793;BME280;8513;42.662;23.350;2023-01-29T08:26:17;95238.44;;;1.70;69.83
16793;BME280;8513;42.662;23.350;2023-01-29T08:28:43;95234.00;;;1.58;69.25
16793;BME280;8513;42.662;23.350;2023-01-29T08:31:16;95240.16;;;1.27;69.11
16793;BME280;8513;42.662;23.350;2023-01-29T08:33:42;95245.38;;;1.41;69.77
16793;BME280;8513;42.662;23.350;2023-01-29T08:36:08;95243.72;;;1.40;68.93
16793;BME280;8513;42.662;23.350;2023-01-29T08:38:34;95236.03;;;0.94;69.81
16793;BME280;8513;42.662;23.350;2023-01-29T08:40:59;95247.44;;;1.20;70.19
16793;BME280;8513;42.662;23.350;2023-01-29T08:43:25;95246.38;;;1.24;69.56
16793;BME280;8513;42.662;23.350;2023-01-29T08:45:50;95252.28;;;1.26;69.08
16793;BME280;8513;42.662;23.350;2023-01-29T08:48:15;95247.63;;;1.47;68.78
16793;BME280;8513;42.662;23.350;2023-01-29T08:50:41;95257.53;;;1.69;68.00
16793;BME280;8513;42.662;23.350;2023-01-29T08:53:07;95252.72;;;1.63;67.48
16793;BME280;8513;42.662;23.350;2023-01-29T08:55:38;95268.47;;;1.74;67.15
16793;BME280;8513;42.662;23.350;2023-01-29T08:58:05;95276.56;;;1.54;67.09
16793;BME280;8513;42.662;23.350;2023-01-29T09:00:32;95271.31;;;1.56;67.67
16793;BME280;8513;42.662;23.350;2023-01-29T09:02:58;95269.06;;;1.49;67.45
16793;BME280;8513;42.662;23.350;2023-01-29T09:05:25;95274.63;;;1.58;67.30
16793;BME280;8513;42.662;23.350;2023-01-29T09:07:50;95277.41;;;1.54;67.39
16793;BME280;8513;42.662;23.350;2023-01-29T09:10:16;95283.34;;;1.71;67.58
16793;BME280;8513;42.662;23.350;2023-01-29T09:12:41;95275.22;;;1.77;66.99
16793;BME280;8513;42.662;23.350;2023-01-29T09:15:07;95260.66;;;1.89;66.19
16793;BME280;8513;42.662;23.350;2023-01-29T09:17:33;95263.47;;;1.71;66.59
16793;BME280;8513;42.662;23.350;2023-01-29T09:19:58;95273.00;;;1.85;66.43
16793;BME280;8513;42.662;23.350;2023-01-29T09:22:24;95266.34;;;1.95;65.42
16793;BME280;8513;42.662;23.350;2023-01-29T09:24:49;95266.88;;;1.72;65.77
16793;BME280;8513;42.662;23.350;2023-01-29T09:27:15;95265.47;;;1.81;66.09
16793;BME280;8513;42.662;23.350;2023-01-29T09:29:40;95263.22;;;1.31;67.66
16793;BME280;8513;42.662;23.350;2023-01-29T09:32:06;95269.38;;;1.59;66.90
16793;BME280;8513;42.662;23.350;2023-01-29T09:34:31;95266.34;;;1.22;68.51
16793;BME280;8513;42.662;23.350;2023-01-29T09:36:57;95267.66;;;1.44;68.49
16793;BME280;8513;42.662;23.350;2023-01-29T09:39:22;95262.31;;;1.47;67.94
16793;BME280;8513;42.662;23.350;2023-01-29T09:45:03;95266.41;;;1.51;67.22
16793;BME280;8513;42.662;23.350;2023-01-29T09:47:32;95262.72;;;1.69;66.93
16793;BME280;8513;42.662;23.350;2023-01-29T09:50:06;95254.38;;;1.64;66.49
16793;BME280;8513;42.662;23.350;2023-01-29T09:52:40;95252.88;;;1.60;66.07
16793;BME280;8513;42.662;23.350;2023-01-29T09:57:52;95249.47;;;1.74;66.74
16793;BME280;8513;42.662;23.350;2023-01-29T10:02:56;95245.75;;;1.78;66.06
16793;BME280;8513;42.662;23.350;2023-01-29T10:23:35;95240.03;;;1.73;66.30
16793;BME280;8513;42.662;23.350;2023-01-29T10:26:02;95226.13;;;1.88;65.59
16793;BME280;8513;42.662;23.350;2023-01-29T10:28:41;95221.97;;;1.86;66.30
16793;BME280;8513;42.662;23.350;2023-01-29T10:31:23;95215.38;;;2.09;65.48
16793;BME280;8513;42.662;23.350;2023-01-29T10:34:06;95224.16;;;2.06;64.91
16793;BME280;8513;42.662;23.350;2023-01-29T10:36:41;95214.22;;;2.13;65.13
16793;BME280;8513;42.662;23.350;2023-01-29T10:39:17;95208.41;;;2.09;65.13
16793;BME280;8513;42.662;23.350;2023-01-29T10:44:59;95222.34;;;1.65;66.67
16793;BME280;8513;42.662;23.350;2023-01-29T10:58:30;95215.13;;;1.70;66.13
16793;BME280;8513;42.662;23.350;2023-01-29T11:00:59;95211.31;;;1.62;66.92
16793;BME280;8513;42.662;23.350;2023-01-29T11:03:30;95209.47;;;1.78;66.43
16793;BME280;8513;42.662;23.350;2023-01-29T11:06:14;95213.16;;;1.60;66.76
16793;BME280;8513;42.662;23.350;2023-01-29T11:14:03;95203.44;;;1.77;66.14
16793;BME280;8513;42.662;23.350;2023-01-29T11:16:39;95193.13;;;2.05;65.25
16793;BME280;8513;42.662;23.350;2023-01-29T11:19:05;95192.81;;;1.68;66.46
16793;BME280;8513;42.662;23.350;2023-01-29T11:21:31;95186.75;;;1.82;66.00
16793;BME280;8513;42.662;23.350;2023-01-29T11:24:10;95178.59;;;2.02;66.05
16793;BME280;8513;42.662;23.350;2023-01-29T11:26:39;95184.56;;;1.75;66.28
16793;BME280;8513;42.662;23.350;2023-01-29T11:31:52;95172.22;;;1.93;65.82
16793;BME280;8513;42.662;23.350;2023-01-29T11:34:20;95179.19;;;2.20;65.44
16793;BME280;8513;42.662;23.350;2023-01-29T11:37:02;95179.84;;;2.24;65.15
16793;BME280;8513;42.662;23.350;2023-01-29T11:39:30;95164.47;;;2.20;65.12
16793;BME280;8513;42.662;23.350;2023-01-29T11:42:00;95162.63;;;2.23;65.07
16793;BME280;8513;42.662;23.350;2023-01-29T11:44:31;95158.72;;;2.15;64.83
16793;BME280;8513;42.662;23.350;2023-01-29T11:49:35;95163.44;;;2.23;64.28
16793;BME280;8513;42.662;23.350;2023-01-29T11:52:04;95158.69;;;2.30;64.27
16793;BME280;8513;42.662;23.350;2023-01-29T11:54:57;95157.75;;;2.31;63.70
16793;BME280;8513;42.662;23.350;2023-01-29T11:59:53;95151.03;;;2.68;63.27
16793;BME280;8513;42.662;23.350;2023-01-29T12:02:27;95145.47;;;2.47;64.26
16793;BME280;8513;42.662;23.350;2023-01-29T12:05:13;95151.06;;;2.41;64.53
16793;BME280;8513;42.662;23.350;2023-01-29T12:07:41;95146.19;;;2.49;64.27
16793;BME280;8513;42.662;23.350;2023-01-29T12:13:14;95141.72;;;2.38;63.82
16793;BME280;8513;42.662;23.350;2023-01-29T12:15:46;95142.78;;;2.49;63.41
16793;BME280;8513;42.662;23.350;2023-01-29T12:18:35;95148.75;;;2.36;63.53
16793;BME280;8513;42.662;23.350;2023-01-29T12:21:04;95145.75;;;2.42;63.62
16793;BME280;8513;42.662;23.350;2023-01-29T12:23:49;95150.84;;;2.44;63.80
16793;BME280;8513;42.662;23.350;2023-01-29T12:26:32;95152.84;;;2.53;63.87
16793;BME280;8513;42.662;23.350;2023-01-29T12:29:30;95151.72;;;2.57;63.31
16793;BME280;8513;42.662;23.350;2023-01-29T12:34:45;95146.03;;;2.65;63.21
16793;BME280;8513;42.662;23.350;2023-01-29T12:37:24;95146.91;;;2.51;63.37
16793;BME280;8513;42.662;23.350;2023-01-29T12:39:55;95155.63;;;2.50;63.53
16793;BME280;8513;42.662;23.350;2023-01-29T12:42:22;95150.31;;;2.79;63.09
16793;BME280;8513;42.662;23.350;2023-01-29T12:45:07;95154.28;;;2.97;62.27
16793;BME280;8513;42.662;23.350;2023-01-29T12:47:51;95150.81;;;2.71;63.02
16793;BME280;8513;42.662;23.350;2023-01-29T12:50:19;95146.25;;;2.75;62.78
16793;BME280;8513;42.662;23.350;2023-01-29T12:52:52;95148.13;;;2.73;62.66
16793;BME280;8513;42.662;23.350;2023-01-29T12:57:57;95152.91;;;2.39;63.17
16793;BME280;8513;42.662;23.350;2023-01-29T13:05:59;95141.78;;;2.37;63.75
16793;BME280;8513;42.662;23.350;2023-01-29T13:08:40;95147.31;;;2.45;63.54
16793;BME280;8513;42.662;23.350;2023-01-29T13:11:15;95149.41;;;2.53;63.58
16793;BME280;8513;42.662;23.350;2023-01-29T13:13:49;95139.16;;;2.64;62.95
16793;BME280;8513;42.662;23.350;2023-01-29T13:16:25;95146.91;;;2.38;62.98
16793;BME280;8513;42.662;23.350;2023-01-29T13:18:55;95133.81;;;2.40;63.33
16793;BME280;8513;42.662;23.350;2023-01-29T13:21:25;95145.00;;;2.28;63.77
16793;BME280;8513;42.662;23.350;2023-01-29T13:23:58;95139.28;;;2.08;64.50
16793;BME280;8513;42.662;23.350;2023-01-29T13:26:24;95140.88;;;2.38;64.11
16793;BME280;8513;42.662;23.350;2023-01-29T13:28:51;95140.47;;;2.44;63.85
16793;BME280;8513;42.662;23.350;2023-01-29T13:31:30;95142.56;;;2.52;63.33
16793;BME280;8513;42.662;23.350;2023-01-29T13:34:32;95147.44;;;2.43;63.81
16793;BME280;8513;42.662;23.350;2023-01-29T13:37:11;95149.81;;;2.47;64.14
16793;BME280;8513;42.662;23.350;2023-01-29T13:39:46;95151.44;;;2.62;63.03
16793;BME280;8513;42.662;23.350;2023-01-29T13:42:16;95157.34;;;2.64;63.84
16793;BME280;8513;42.662;23.350;2023-01-29T13:44:47;95160.06;;;2.75;63.09
16793;BME280;8513;42.662;23.350;2023-01-29T13:47:25;95157.25;;;2.65;63.41
16793;BME280;8513;42.662;23.350;2023-01-29T14:05:41;95167.88;;;2.21;63.10
16793;BME280;8513;42.662;23.350;2023-01-29T14:10:40;95174.25;;;2.30;64.03
16793;BME280;8513;42.662;23.350;2023-01-29T14:15:45;95174.97;;;2.05;63.64
16793;BME280;8513;42.662;23.350;2023-01-29T14:18:33;95186.03;;;1.94;63.63
16793;BME280;8513;42.662;23.350;2023-01-29T14:21:03;95177.81;;;1.87;63.25
16793;BME280;8513;42.662;23.350;2023-01-29T14:23:47;95177.97;;;1.98;63.36
16793;BME280;8513;42.662;23.350;2023-01-29T14:28:57;95199.25;;;2.04;63.65
16793;BME280;8513;42.662;23.350;2023-01-29T14:31:31;95198.66;;;1.71;63.66
16793;BME280;8513;42.662;23.350;2023-01-29T14:34:02;95200.50;;;1.69;64.35
16793;BME280;8513;42.662;23.350;2023-01-29T14:36:29;95207.34;;;1.70;64.37
16793;BME280;8513;42.662;23.350;2023-01-29T14:39:03;95208.59;;;2.06;63.72
16793;BME280;8513;42.662;23.350;2023-01-29T14:41:31;95215.13;;;1.85;64.15
16793;BME280;8513;42.662;23.350;2023-01-29T14:47:17;95205.28;;;2.04;64.43
16793;BME280;8513;42.662;23.350;2023-01-29T14:49:51;95197.66;;;2.15;64.13
16793;BME280;8513;42.662;23.350;2023-01-29T14:52:20;95205.19;;;1.91;64.48
16793;BME280;8513;42.662;23.350;2023-01-29T14:54:47;95202.47;;;2.07;64.57
16793;BME280;8513;42.662;23.350;2023-01-29T14:57:15;95202.09;;;2.13;64.04
16793;BME280;8513;42.662;23.350;2023-01-29T14:59:53;95201.53;;;2.08;64.28
16793;BME280;8513;42.662;23.350;2023-01-29T15:02:24;95207.03;;;1.89;65.20
16793;BME280;8513;42.662;23.350;2023-01-29T15:04:57;95210.66;;;2.01;65.15
16793;BME280;8513;42.662;23.350;2023-01-29T15:07:40;95213.13;;;2.03;64.86
16793;BME280;8513;42.662;23.350;2023-01-29T15:10:16;95209.38;;;1.80;66.27
16793;BME280;8513;42.662;23.350;2023-01-29T15:12:59;95210.84;;;1.98;65.49
16793;BME280;8513;42.662;23.350;2023-01-29T15:15:36;95201.56;;;1.94;65.82
16793;BME280;8513;42.662;23.350;2023-01-29T15:18:08;95205.06;;;2.07;65.33
16793;BME280;8513;42.662;23.350;2023-01-29T15:20:39;95207.81;;;1.77;66.17
16793;BME280;8513;42.662;23.350;2023-01-29T15:23:28;95211.78;;;1.83;65.74
16793;BME280;8513;42.662;23.350;2023-01-29T15:25:55;95212.34;;;1.88;65.72
16793;BME280;8513;42.662;23.350;2023-01-29T15:28:22;95214.38;;;1.83;65.77
16793;BME280;8513;42.662;23.350;2023-01-29T15:30:53;95221.31;;;1.96;64.74
16793;BME280;8513;42.662;23.350;2023-01-29T15:33:19;95220.22;;;1.72;65.62
16793;BME280;8513;42.662;23.350;2023-01-29T15:35:45;95216.59;;;1.74;65.66
16793;BME280;8513;42.662;23.350;2023-01-29T15:38:22;95217.69;;;1.70;65.25
16793;BME280;8513;42.662;23.350;2023-01-29T15:40:58;95220.28;;;1.70;65.61
16793;BME280;8513;42.662;23.350;2023-01-29T15:43:26;95220.66;;;1.79;65.10
16793;BME280;8513;42.662;23.350;2023-01-29T15:45:55;95221.03;;;1.87;65.16
16793;BME280;8513;42.662;23.350;2023-01-29T15:48:34;95224.16;;;1.92;65.19
16793;BME280;8513;42.662;23.350;2023-01-29T15:51:01;95217.06;;;1.95;64.91